KMDH Weather | Aviation | SIU

Home
Southern Illinois University

CONTACT

SIU.EDU

Aviation - Weather

College of Applied Sciences and Arts

KMDH Weather

NOTICE: Although all weather products are taken from the National Weather Service, this data should be used only as a supplement to a formal weather briefing.

Last Updated: Sunday, January 21st, 2018, 1:53 pm
Information on this page is updated every 5 minutes.


METARS

KMDH 211852Z 19013KT 5SM BR OVC006 12/12 A2997 RMK AO2 SLP147 T01220117

KMDH 211752Z 20014G23KT 8SM OVC006 12/12 A2999 RMK AO2 SLP156 T01220117 10122

KMWA 211945Z 19015KT 4SM BR OVC004 12/11 A2997

KMWA 211845Z 19015KT 4SM BR OVC004 11/11 A2999

KMWA 211745Z 19010KT 5SM BR OVC004 11/11 A3001

KMWA 211720Z 19013KT 7SM OVC004 11/11 A3003

KMWA 211659Z 19015KT 4SM BR OVC004 11/11 A3003

KCGI 211853Z 19015G21KT 7SM OVC005 12/11 A2999 RMK AO2 PK WND 19027/1822 SLP154

KCGI 211753Z 19015G25KT 5SM BR OVC006 12/10 A3002 RMK AO2 PK WND 19026/1721

KSAR 211935Z AUTO 18008G15KT 7SM OVC003 12/12 A2992 RMK AO2 T01150115

KSAR 211915Z AUTO 18008G16KT 5SM BR OVC003 11/11 A2993 RMK AO2 T01140114

KSAR 211855Z AUTO 18010G15KT 4SM BR OVC003 11/11 A2994 RMK AO2 T01130113

KSAR 211835Z AUTO 18011G15KT 5SM BR OVC003 11/11 A2995 RMK AO2 T01120112

KSAR 211815Z AUTO 18010G15KT 5SM BR OVC003 11/11 A2996 RMK AO2 T01110111

KSAR 211755Z AUTO 20011G14KT 5SM BR OVC003 11/11 A2997 RMK AO2 T01120112 10112

KSAR 211735Z AUTO 19010KT 5SM BR OVC003 11/11 A2998 RMK AO2 T01110111

KSAR 211715Z AUTO 18012G17KT 5SM BR OVC003 11/11 A2999 RMK AO2 T01100110

KSAR 211655Z AUTO 17011KT 10SM OVC003 11/11 A3000 RMK AO2 T01100110

KFAM 211856Z AUTO 18012KT 10SM OVC006 15/13 A2991 RMK AO2 SLP127 T01500128

KFAM 211813Z AUTO 19012KT 10SM OVC006 14/12 A2994 RMK AO2

KFAM 211756Z AUTO 18012KT 10SM OVC004 14/12 A2995 RMK AO2 CIG 003V007 SLP140

KFAM 211704Z AUTO 19009KT 3SM BR OVC004 12/12 A2998 RMK AO2

KFAM 211656Z AUTO 19009KT 2 1/2SM BR OVC004 12/12 A2999 RMK AO2 SLP153 T01220117

KMVN 211943Z AUTO 19010KT 3SM BR OVC003 12/11 A2995 RMK AO2

KMVN 211936Z AUTO 18008KT 2 1/2SM BR OVC003 12/11 A2995 RMK AO2

KMVN 211856Z AUTO 20008KT 3SM BR OVC003 11/11 A2997 RMK AO2 SLP147 T01110111

KMVN 211838Z AUTO 19010KT 3SM BR OVC003 11/11 A2997 RMK AO2

KMVN 211756Z AUTO 19008KT 2 1/2SM BR OVC003 11/11 A2999 RMK AO2 SLP155 T01110111

KMVN 211748Z AUTO 19007KT 2SM BR OVC003 11/11 A2999 RMK AO2

KMVN 211731Z AUTO 19007KT 1 1/4SM BR OVC003 11/11 A3000 RMK AO2

KMVN 211720Z AUTO 20007KT 3/4SM BR OVC003 11/11 A3001 RMK AO2

KMVN 211656Z AUTO 20009KT 1/2SM FG OVC003 11/11 A3003 RMK AO2 SLP169 T01060106

KHSB 211935Z AUTO 20010KT 7SM OVC007 13/12 A2999 RMK AO2 T01280120

KCIR 211935Z AUTO 18006KT 10SM OVC012 12/11 A2999 RMK AO2 T01200107

KPAH 211853Z 19007KT 10SM OVC012 14/11 A3001 RMK AO2 SLP161 T01390106

KPOF 211853Z AUTO 19011KT 5SM BR OVC007 14/12 A2997 RMK AO2 SLP150 T01390122

KFAM 211856Z AUTO 18012KT 10SM OVC006 15/13 A2991 RMK AO2 SLP127 T01500128

KBLV 211856Z AUTO 19014KT 10SM OVC011 15/12 A2988 RMK AO2 OVC V BKN CIG 010

KSUS 211854Z 20015G24KT 10SM BKN041 BKN250 21/12 A2982 RMK AO2 SLP100 T02110117

KCPS 211853Z 19010KT 10SM FEW025 BKN032 18/12 A2987 RMK AO2 SLP115 T01780122

KSTL 211951Z 20018G23KT 10SM BKN038 BKN250 20/12 A2983 RMK AO2 SLP103 T02000122

KTBN 211856Z AUTO 21014G21KT 10SM BKN032 BKN041 19/12 A2983 RMK AO2 PK WND

KVIH 211853Z AUTO 20019G28KT 10SM BKN034 20/12 A2983 RMK AO2 PK WND 19034/1819

KENL 211935Z AUTO 17009KT 4SM BR OVC004 13/12 A2992 RMK AO2 T01250120

KMTO 211853Z AUTO 18009KT 1/4SM FG VV002 09/09 A2993 RMK AO2 SLP137 T00940094

KFWC 211935Z AUTO 17007KT 2SM BR OVC002 11/11 A2996 RMK AO1 T01060106

KCUL 211935Z AUTO 17009KT 5SM BR OVC008 09/09 A2998 RMK AO2 T00920090

KEVV 211928Z 17007KT 10SM OVC010 11/10 A3002 RMK AO2 T01110100

KOWB 211856Z 19006KT 10SM OVC014 09/07 A3005 RMK AO2 SLP188 T00940072

KEHR 211856Z AUTO 18011KT 10SM OVC011 11/09 A3003 RMK AO2 SLP181 T01110089

KHOP 211921Z AUTO 21014KT 10SM SCT019 BKN048 16/11 A3005 RMK AO2 SLP177

KMKL 211853Z 19015G21KT 10SM FEW021 17/12 A3006 RMK AO2 SLP177 T01720122

KDYR 211913Z AUTO 20008G15KT 10SM SCT021 18/13 A3002 RMK AO2

KARG 211856Z AUTO 20013KT 10SM OVC006 14/12 A2998 RMK AO2 SLP153 T01390122

KJBR 211914Z AUTO 20017G27KT 10SM OVC015 16/13 A2998 RMK AO2 PK WND 21027/1900

KUNO 211853Z AUTO 16009KT 10SM BKN016 OVC023 17/13 A2990 RMK AO2 SLP121

KALN 211945Z 16011G17KT 10SM SCT023 BKN250 16/13 A2985

KALN 211945Z 16011G17KT 10SM SCT023 BKN250 16/13 A2985

KCOU 211854Z 19015G23KT 10SM BKN040 20/12 A2978 RMK AO2 PK WND 22028/1825 SLP083

KSPI 211852Z 18012KT 10SM FEW036 SCT045 OVC055 16/12 A2987 RMK AO2 SLP116

KAJG 211935Z AUTO 17008KT 3SM BR OVC006 09/09 A2998 RMK AO2 T00910087

KM30 211935Z AUTO 18006KT 10SM OVC012 14/11 A3001 RMK AO2 T01350113

KDEC 211937Z 18010KT 10SM BKN010 BKN047 OVC055 13/12 A2989 RMK AO2 CIG 008V013

KIJX 211935Z AUTO 15009KT 10SM SCT024 OVC031 16/12 A2983 RMK AO2 T01630115


TAFS

KEVV 211902Z 2119/2218 21009KT P6SM OVC005

        FM212300 18009KT P6SM OVC015

        FM220100 17006KT P6SM OVC030

        FM220200 16007KT P6SM OVC040

        FM220900 16009KT P6SM VCSH OVC060

        FM221200 16013G21KT P6SM -SHRA OVC060

        FM221300 17013G21KT 3SM SHRA OVC025

        FM221500 17014G23KT P6SM -SHRA OVC015

        FM221600 17015G25KT P6SM OVC008

KCGI 211739Z 2118/2218 19015G25KT P6SM OVC006

        FM220200 17011G20KT P6SM VCSH OVC015

        FM220400 16014G24KT P6SM VCSH OVC020

        FM220900 17018G30KT P6SM -SHRA OVC015

        FM221100 17018G30KT 2SM +SHRA OVC015

        FM221300 17017G28KT P6SM BKN045

        FM221600 19017G30KT P6SM SCT200

KPAH 211739Z 2118/2218 19011KT P6SM OVC012

        FM220400 17011KT P6SM OVC035

        FM220700 17014G23KT P6SM VCSH OVC040

        FM221000 17015G25KT P6SM -SHRA OVC040

        FM221200 18016G26KT 2SM +SHRA OVC010

        FM221400 18016G26KT P6SM OVC020

        FM221600 19017G28KT P6SM BKN100

        FM221700 19017G27KT P6SM SCT150

KSPI 211735Z 2118/2218 18010KT P6SM OVC050

        FM212300 16010KT 5SM BR OVC015

        FM220600 16012G20KT 2SM -SHRA VCTS OVC003CB

        FM221200 17016G26KT 4SM -SHRA OVC005

        FM221600 18017G26KT P6SM -SHRA BKN020

KSTL 211856Z 2119/2224 17012G22KT P6SM BKN035

        FM220600 17012G18KT 3SM SHRA VCTS OVC015CB

        FM221100 19010KT 6SM -SHRA BKN050

        FM221400 17012KT P6SM SCT250

KDEC 211735Z 2118/2218 18010KT 3SM BR OVC002

        FM212000 17008KT P6SM OVC030

        FM212300 16010KT 5SM BR OVC015

        FM220600 16012G20KT 5SM -SHRA OVC003

        FM220900 17014G22KT 2SM -SHRA VCTS OVC003CB

        FM221200 17016G26KT 1SM -SHRA OVC003

        FM221600 18017G27KT P6SM -SHRA BKN010

KOWB 211739Z 2118/2218 19010KT P6SM OVC014

        FM212000 19010KT P6SM BKN020

        FM212100 19009KT P6SM BKN035

        FM220900 17013G21KT P6SM OVC070

        FM221300 16014G25KT 3SM SHRA OVC025

        FM221600 18016G28KT P6SM -SHRA BKN015

        FM221700 18017G29KT P6SM BKN015

KSUS 211857Z 2119/2218 19012G22KT P6SM SCT035 BKN250

        FM220600 17012G20KT 3SM SHRA VCTS OVC010CB

        FM221100 19010G16KT 6SM -SHRA BKN050

        FM221400 19009KT P6SM SCT250

TAF AMD KBLV 211850Z 2118/2222 20012KT 9999 BKN012 BKN020 OVC035 510103 QNH2985INS

        BECMG 2203/2204 20015G25KT 6000 -SHRA OVC003 520202 QNH2963INS

        BECMG 2213/2214 21015G25KT 9999 NSW SCT015 BKN035 OVC050 520202 QNH2958INS

        BECMG 2221/2222 23015G25KT 9999 BKN035 OVC050 520202 QNH2945INS TX15/2121Z TN08/2211Z


Winds Aloft

VALID 211800Z FOR USE 1400-2100Z. TEMPS NEG ABV 24000

FT 3000 6000 9000 12000 18000 24000 30000 34000 39000
CGI23372333+072223+032327+012332-152338-27244543255452265562
EVV24302331+062331+032426+012525-152432-27254143254652265563
SPI23282127+052532+042434+002436-152348-28245645246953246864
STL22362323+092329+032335+002340-152346-28245544246652246263



Pilot Reports

No pilot reports found for area.



Area Forecast



Significant Weather

WAUS43 KKCI 211445 CHIS WA 211445 AIRMET SIERRA UPDT 2 FOR IFR VALID UNTIL 212100 AIRMET IFR...SD NE KS MN IA MO WI LM LS MI LH IL IN KY FROM SSM TO YVV TO 30SE ECK TO FWA TO CVG TO IIU TO DYR TO RZC TO OSW TO 60NE MMB TO OBH TO 40ESE ONL TO 20E MSP TO SAW TO SSM CIG BLW 010/VIS BLW 3SM BR. CONDS CONTG BYD 21Z THRU 03Z.
WSUS32 KKCI 211855 SIGC CONVECTIVE SIGMET...NONE OUTLOOK VALID 212055-220055 FROM UIN-40NNE MLU-30SSW LCH-60NNE LRD-50SSE PWE-UIN WST ISSUANCES EXPD. REFER TO MOST RECENT ACUS01 KWNS FROM STORM PREDICTION CENTER FOR SYNOPSIS AND METEOROLOGICAL DETAILS.
WSUS32 KKCI 211755 SIGC CONVECTIVE SIGMET...NONE OUTLOOK VALID 211955-212355 FROM 40SSW COU-EIC-PSX-70NE LRD-50NW OSW-40SSW COU WST ISSUANCES EXPD. REFER TO MOST RECENT ACUS01 KWNS FROM STORM PREDICTION CENTER FOR SYNOPSIS AND METEOROLOGICAL DETAILS.
WAUS46 KKCI 211445 SFOT WA 211445 AIRMET TANGO UPDT 2 FOR TURB STG WNDS AND LLWS VALID UNTIL 212100 AIRMET TURB...WA OR CA AND CSTL WTRS FROM 50WSW YXC TO 50NE BKE TO 50WSW REO TO 130WSW PYE TO 140WSW FOT TO 140WSW ONP TO 80W TOU TO 50WSW YXC MOD TURB BLW FL180. CONDS CONTG BYD 21Z THRU 03Z. OTLK VALID 2100-0300Z AREA 1...TURB WA OR CA ID MT NV AND CSTL WTRS BOUNDED BY 40SE YQL-20E HLN-60NNE CZQ-30SE RBL-130SW PYE-140WSW FOT-120WNW ONP-140W TOU-40SE YQL MOD TURB BLW FL180. CONDS CONTG THRU 03Z. AREA 2...STG SFC WNDS WA OR CSTL WTRS BOUNDED BY 40NW TOU-30WNW HQM-60SW HQM-110WNW ONP-120W TOU-40NW TOU SUSTAINED SURFACE WINDS GTR THAN 30KT EXP. CONDS DVLPG 21-00Z. CONDS CONTG THRU 03Z.